createdAt,value
2018-10-09T00:00:48.715Z,9.27
2018-10-09T00:03:17.503Z,10.77
2018-10-09T00:05:46.314Z,12.77
2018-10-09T00:08:15.194Z,11.73
2018-10-09T00:10:44.130Z,15.73
2018-10-09T00:13:12.989Z,12.10
2018-10-09T00:15:41.800Z,11.83
2018-10-09T00:18:10.659Z,15.37
2018-10-09T00:20:39.491Z,10.10
2018-10-09T00:23:08.488Z,12.53
2018-10-09T00:25:37.308Z,12.10
2018-10-09T00:28:06.169Z,13.17
2018-10-09T00:30:35.038Z,11.07
2018-10-09T00:33:03.897Z,10.93
2018-10-09T00:35:32.691Z,10.10
2018-10-09T00:38:01.558Z,11.57
2018-10-09T00:40:30.411Z,13.23
2018-10-09T00:42:59.299Z,12.47
2018-10-09T00:45:28.189Z,12.73
2018-10-09T00:47:57.043Z,12.07
2018-10-09T00:50:25.910Z,14.40
2018-10-09T00:52:54.794Z,10.83
2018-10-09T00:55:23.788Z,11.40
2018-10-09T00:57:52.687Z,10.77
2018-10-09T01:00:21.630Z,11.93
2018-10-09T01:02:50.509Z,13.07
2018-10-09T01:05:19.414Z,13.33
2018-10-09T01:07:48.322Z,13.27
2018-10-09T01:10:17.161Z,9.93
2018-10-09T01:12:45.992Z,16.27
2018-10-09T01:15:14.890Z,12.37
2018-10-09T01:17:43.696Z,13.23
2018-10-09T01:20:12.611Z,11.63
2018-10-09T01:22:41.492Z,14.07
2018-10-09T01:25:10.301Z,11.67
2018-10-09T01:27:39.163Z,12.30
2018-10-09T01:30:10.117Z,13.63
2018-10-09T01:32:38.963Z,19.20
2018-10-09T01:35:07.855Z,10.67
2018-10-09T01:37:36.696Z,12.90
2018-10-09T01:40:05.737Z,12.57
2018-10-09T01:42:34.580Z,13.40
2018-10-09T01:45:03.395Z,14.37
2018-10-09T01:47:32.386Z,13.70
2018-10-09T01:50:01.237Z,11.93
2018-10-09T01:52:30.089Z,13.20
2018-10-09T01:54:58.973Z,13.43
2018-10-09T01:57:27.758Z,10.00
2018-10-09T01:59:56.654Z,11.60
2018-10-09T02:02:25.516Z,14.70
2018-10-09T02:04:54.350Z,14.23
2018-10-09T02:07:23.453Z,15.13
2018-10-09T02:09:52.352Z,11.43
2018-10-09T02:12:21.181Z,12.33
2018-10-09T02:14:50.045Z,12.73
2018-10-09T02:17:19.014Z,11.50
2018-10-09T02:19:47.856Z,12.43
2018-10-09T02:22:16.704Z,12.23
2018-10-09T02:24:45.562Z,13.87
2018-10-09T02:27:14.390Z,13.83
2018-10-09T02:29:43.223Z,12.03
2018-10-09T02:32:12.079Z,12.20
2018-10-09T02:34:40.915Z,12.20
2018-10-09T02:37:09.744Z,13.27
2018-10-09T02:39:38.578Z,12.80
2018-10-09T02:42:07.478Z,14.27
2018-10-09T02:44:36.316Z,14.03
2018-10-09T02:47:05.230Z,12.30
2018-10-09T02:49:34.043Z,11.43
2018-10-09T02:52:02.881Z,12.00
2018-10-09T02:54:31.736Z,14.13
2018-10-09T02:57:00.653Z,14.40
2018-10-09T02:59:29.470Z,12.50
2018-10-09T03:01:58.279Z,11.93
2018-10-09T03:04:27.127Z,13.87
2018-10-09T03:06:55.963Z,15.93
2018-10-09T03:09:24.864Z,12.37
2018-10-09T03:11:53.679Z,12.60
2018-10-09T03:14:22.620Z,13.90
2018-10-09T03:16:51.427Z,12.40
2018-10-09T03:19:20.268Z,12.40
2018-10-09T03:21:49.091Z,11.67
2018-10-09T03:24:17.943Z,13.67
2018-10-09T03:26:46.781Z,11.73
2018-10-09T03:29:15.629Z,12.87
2018-10-09T03:31:44.519Z,12.17
2018-10-09T03:34:13.335Z,14.57
2018-10-09T03:36:42.189Z,14.43
2018-10-09T03:39:11.049Z,16.00
2018-10-09T03:41:39.901Z,11.80
2018-10-09T03:44:08.881Z,10.80
2018-10-09T03:46:37.694Z,10.20
2018-10-09T03:49:06.835Z,10.93
2018-10-09T03:51:35.696Z,12.23
2018-10-09T03:54:04.560Z,12.13
2018-10-09T03:56:33.370Z,13.23
2018-10-09T03:59:02.204Z,11.27
2018-10-09T04:01:31.090Z,11.90
2018-10-09T04:03:59.939Z,16.20
2018-10-09T04:06:28.777Z,14.17
2018-10-09T04:08:57.668Z,13.40
2018-10-09T04:11:26.521Z,12.23
2018-10-09T04:13:55.528Z,13.27
2018-10-09T04:16:24.317Z,13.87
2018-10-09T04:18:53.161Z,13.30
2018-10-09T04:21:21.979Z,13.00
2018-10-09T04:23:50.829Z,13.67
2018-10-09T04:26:19.589Z,13.60
2018-10-09T04:28:48.386Z,13.50
2018-10-09T04:31:17.249Z,12.63
2018-10-09T04:33:46.054Z,10.57
2018-10-09T04:36:14.899Z,13.90
2018-10-09T04:38:43.709Z,13.33
2018-10-09T04:41:12.569Z,12.80
2018-10-09T04:43:41.421Z,11.47
2018-10-09T04:46:10.233Z,13.30
2018-10-09T04:48:39.088Z,13.93
2018-10-09T04:51:07.892Z,11.57
2018-10-09T04:53:36.808Z,14.27
2018-10-09T04:56:05.744Z,15.17
2018-10-09T04:58:34.565Z,16.33
2018-10-09T05:01:03.475Z,13.93
2018-10-09T05:03:32.388Z,15.33
2018-10-09T05:06:01.237Z,14.87
2018-10-09T05:08:30.101Z,14.03
2018-10-09T05:10:58.938Z,12.43
2018-10-09T05:13:27.767Z,17.53
2018-10-09T05:15:56.615Z,12.40
2018-10-09T05:18:25.423Z,12.77
2018-10-09T05:20:54.290Z,12.73
2018-10-09T05:23:23.221Z,14.70
2018-10-09T05:25:52.021Z,15.17
2018-10-09T05:28:20.841Z,14.50
2018-10-09T05:30:49.648Z,15.73
2018-10-09T05:33:18.477Z,13.90
2018-10-09T05:35:47.413Z,17.30
2018-10-09T05:38:16.301Z,14.07
2018-10-09T05:40:45.210Z,14.33
2018-10-09T05:43:14.017Z,15.80
2018-10-09T05:45:42.886Z,16.37
2018-10-09T05:48:11.742Z,18.50
2018-10-09T05:50:40.601Z,15.77
2018-10-09T05:53:09.422Z,15.70
2018-10-09T05:55:38.365Z,18.87
2018-10-09T05:58:07.545Z,18.07
2018-10-09T06:00:36.404Z,32.60
2018-10-09T06:03:05.494Z,41.37
2018-10-09T06:05:34.516Z,49.33
2018-10-09T06:08:03.550Z,45.23
2018-10-09T06:10:33.342Z,47.03
2018-10-09T06:13:02.505Z,32.67
2018-10-09T06:15:31.421Z,49.50
2018-10-09T06:18:00.309Z,41.67
2018-10-09T06:20:29.183Z,65.43
2018-10-09T06:22:58.082Z,52.33
2018-10-09T06:25:26.918Z,45.77
2018-10-09T06:27:55.835Z,44.80
2018-10-09T06:30:24.734Z,41.97
2018-10-09T06:32:53.547Z,47.60
2018-10-09T06:35:22.472Z,42.27
2018-10-09T06:37:51.689Z,44.10
2018-10-09T06:40:20.591Z,41.80
2018-10-09T06:42:49.497Z,34.17
2018-10-09T06:45:18.367Z,39.53
2018-10-09T06:47:47.351Z,42.47
2018-10-09T06:50:16.136Z,41.07
2018-10-09T06:52:45.036Z,41.23
2018-10-09T06:55:13.952Z,39.23
2018-10-09T06:57:42.878Z,35.53
2018-10-09T07:00:11.870Z,43.93
2018-10-09T07:02:40.775Z,37.73
2018-10-09T07:05:09.627Z,35.03
2018-10-09T07:07:38.522Z,38.60
2018-10-09T07:10:07.468Z,35.37
2018-10-09T07:12:36.354Z,35.57
2018-10-09T07:15:06.386Z,39.43
2018-10-09T07:17:35.196Z,32.13
2018-10-09T07:20:04.292Z,34.67
2018-10-09T07:22:33.125Z,34.90
2018-10-09T07:25:01.965Z,30.07
2018-10-09T07:27:30.835Z,40.90
2018-10-09T07:29:59.776Z,36.17
2018-10-09T07:32:28.607Z,38.47
2018-10-09T07:34:57.572Z,35.77
2018-10-09T07:37:26.478Z,33.67
2018-10-09T07:39:55.330Z,33.53
2018-10-09T07:42:24.212Z,30.13
2018-10-09T07:44:53.064Z,38.10
2018-10-09T07:47:22.460Z,36.27
2018-10-09T07:49:51.554Z,28.97
2018-10-09T07:52:21.065Z,33.17
2018-10-09T07:54:49.947Z,37.10
2018-10-09T07:57:18.869Z,32.40
2018-10-09T07:59:47.753Z,34.83
2018-10-09T08:02:16.966Z,34.70
2018-10-09T08:04:45.851Z,34.57
2018-10-09T08:07:14.822Z,31.17
2018-10-09T08:09:43.725Z,32.50
2018-10-09T08:12:13.012Z,30.17
2018-10-09T08:14:42.972Z,34.23
2018-10-09T08:17:11.812Z,32.83
2018-10-09T08:19:40.664Z,30.07
2018-10-09T08:22:09.537Z,30.97
2018-10-09T08:24:38.394Z,31.50
2018-10-09T08:27:07.298Z,25.63
2018-10-09T08:29:36.093Z,31.60
2018-10-09T08:32:05.151Z,30.80
2018-10-09T08:34:34.107Z,26.20
2018-10-09T08:37:03.027Z,27.17
2018-10-09T08:39:31.936Z,26.37
2018-10-09T08:42:00.823Z,24.83
2018-10-09T08:44:29.795Z,27.77
2018-10-09T08:46:58.689Z,25.40
2018-10-09T08:49:27.516Z,26.20
2018-10-09T08:51:56.389Z,28.33
2018-10-09T08:54:25.373Z,26.10
2018-10-09T08:56:54.227Z,27.50
2018-10-09T08:59:23.084Z,24.93
2018-10-09T09:01:51.949Z,26.50
2018-10-09T09:04:20.823Z,27.47
2018-10-09T09:06:49.665Z,25.87
2018-10-09T09:09:18.535Z,28.40
2018-10-09T09:11:47.365Z,28.83
2018-10-09T09:14:16.297Z,22.30
2018-10-09T09:16:45.153Z,23.33
2018-10-09T09:19:14.022Z,28.27
2018-10-09T09:21:43.036Z,23.03
2018-10-09T09:24:11.959Z,28.10
2018-10-09T09:26:40.869Z,26.80
2018-10-09T09:29:09.819Z,21.87
2018-10-09T09:31:38.687Z,26.37
2018-10-09T09:34:07.511Z,23.97
2018-10-09T09:36:36.375Z,21.10
2018-10-09T09:39:06.919Z,24.27
2018-10-09T09:41:35.822Z,19.50
2018-10-09T09:44:04.920Z,18.17
2018-10-09T09:46:33.750Z,19.20
2018-10-09T09:49:02.616Z,18.57
2018-10-09T09:51:31.490Z,17.53
2018-10-09T09:54:00.350Z,23.47
2018-10-09T09:56:29.238Z,20.83
2018-10-09T09:58:58.286Z,21.30
2018-10-09T10:01:32.360Z,20.30
2018-10-09T10:04:01.250Z,19.33
2018-10-09T10:06:30.342Z,18.47
2018-10-09T10:08:59.164Z,16.33
2018-10-09T10:11:28.241Z,15.83
2018-10-09T10:13:57.130Z,13.00
2018-10-09T10:16:25.960Z,13.23
2018-10-09T10:18:54.996Z,10.93
2018-10-09T10:21:23.863Z,9.57
2018-10-09T10:23:53.307Z,9.73
2018-10-09T10:26:22.487Z,6.93
2018-10-09T10:28:51.317Z,7.40
2018-10-09T10:31:20.242Z,6.63
2018-10-09T10:33:49.119Z,7.00
2018-10-09T10:36:17.991Z,5.10
2018-10-09T10:38:46.820Z,7.03
2018-10-09T10:41:15.715Z,5.60
2018-10-09T10:43:44.659Z,3.40
2018-10-09T10:46:13.530Z,3.87
2018-10-09T10:48:55.895Z,4.10
2018-10-09T10:51:24.766Z,6.10
2018-10-09T10:53:53.639Z,5.13
2018-10-09T10:56:22.755Z,4.73
2018-10-09T10:58:51.652Z,5.40
2018-10-09T11:01:20.546Z,5.43
2018-10-09T11:03:49.475Z,4.20
2018-10-09T11:06:19.399Z,6.47
2018-10-09T11:08:48.986Z,7.00
2018-10-09T11:11:18.712Z,8.27
2018-10-09T11:13:47.691Z,5.90
2018-10-09T11:16:16.825Z,5.57
2018-10-09T11:18:45.669Z,7.40
2018-10-09T11:21:14.642Z,7.00
2018-10-09T11:23:43.468Z,6.73
2018-10-09T11:26:12.396Z,9.93
2018-10-09T11:28:41.219Z,9.10
2018-10-09T11:31:10.169Z,12.00
2018-10-09T11:33:38.999Z,10.67
2018-10-09T11:36:07.987Z,11.17
2018-10-09T11:38:36.914Z,12.77
2018-10-09T11:41:05.836Z,9.33
2018-10-09T11:43:34.704Z,11.33
2018-10-09T11:46:03.637Z,9.17
2018-10-09T11:48:32.478Z,16.67
2018-10-09T11:51:01.386Z,16.10
2018-10-09T11:53:30.237Z,13.57
2018-10-09T11:55:59.108Z,10.27
2018-10-09T11:58:28.114Z,14.13
2018-10-09T12:00:59.404Z,16.00
2018-10-09T12:03:28.295Z,12.37
2018-10-09T12:05:57.185Z,11.40
2018-10-09T12:08:26.048Z,15.10
2018-10-09T12:10:54.950Z,13.83
2018-10-09T12:13:23.892Z,14.97
2018-10-09T12:15:52.840Z,11.97
2018-10-09T12:18:21.829Z,11.50
2018-10-09T12:20:50.698Z,11.80
2018-10-09T12:23:19.575Z,13.20
2018-10-09T12:25:48.507Z,10.33
2018-10-09T12:28:17.345Z,12.90
2018-10-09T12:30:46.190Z,11.67
2018-10-09T12:33:15.079Z,19.03
2018-10-09T12:35:44.091Z,16.27
2018-10-09T12:38:12.975Z,16.60
2018-10-09T12:40:41.909Z,24.37
2018-10-09T12:43:10.744Z,17.03
2018-10-09T12:45:39.694Z,20.77
2018-10-09T12:48:08.572Z,17.60
2018-10-09T12:50:37.510Z,16.47
2018-10-09T12:53:06.513Z,21.47
2018-10-09T12:55:35.710Z,18.47
2018-10-09T12:58:04.665Z,22.47
2018-10-09T13:00:33.528Z,19.60
2018-10-09T13:03:02.512Z,16.47
2018-10-09T13:05:31.357Z,19.50
2018-10-09T13:08:00.271Z,16.03
2018-10-09T13:10:29.128Z,20.87
2018-10-09T13:12:58.092Z,17.37
2018-10-09T13:15:27.048Z,17.23
2018-10-09T13:17:56.130Z,19.10
2018-10-09T13:20:24.936Z,18.63
2018-10-09T13:22:53.842Z,15.50
2018-10-09T13:25:22.714Z,16.37
2018-10-09T13:27:51.605Z,16.83
2018-10-09T13:30:20.447Z,14.57
2018-10-09T13:32:49.304Z,11.40
2018-10-09T13:35:18.241Z,13.90
2018-10-09T13:37:47.782Z,16.90
2018-10-09T13:40:16.589Z,17.33
2018-10-09T13:42:46.504Z,19.50
2018-10-09T13:45:15.409Z,15.77
2018-10-09T13:47:44.388Z,16.73
2018-10-09T13:50:13.335Z,15.60
2018-10-09T13:52:42.276Z,15.10
2018-10-09T13:55:11.179Z,15.07
2018-10-09T13:57:40.168Z,15.53
2018-10-09T14:00:09.122Z,18.53
2018-10-09T14:02:37.999Z,13.93
2018-10-09T14:05:07.037Z,18.43
2018-10-09T14:07:35.927Z,14.77
2018-10-09T14:10:05.053Z,12.00
2018-10-09T14:12:34.298Z,13.93
2018-10-09T14:15:03.165Z,12.80
2018-10-09T14:17:32.061Z,15.40
2018-10-09T14:20:00.883Z,13.60
2018-10-09T14:22:29.854Z,18.33
2018-10-09T14:24:58.721Z,14.03
2018-10-09T14:27:28.448Z,12.27
2018-10-09T14:29:57.312Z,13.80
2018-10-09T14:32:26.188Z,16.27
2018-10-09T14:34:55.060Z,11.90
2018-10-09T14:37:24.029Z,13.10
2018-10-09T14:39:52.905Z,12.17
2018-10-09T14:42:21.716Z,14.07
2018-10-09T14:44:50.709Z,12.87
2018-10-09T14:47:19.515Z,15.80
2018-10-09T14:49:48.446Z,11.10
2018-10-09T14:52:17.354Z,11.53
2018-10-09T14:54:46.283Z,13.30
2018-10-09T14:57:15.221Z,13.30
2018-10-09T14:59:44.103Z,11.40
2018-10-09T15:02:13.029Z,10.80
2018-10-09T15:04:41.875Z,15.97
2018-10-09T15:07:10.685Z,11.40
2018-10-09T15:09:39.615Z,12.53
2018-10-09T15:12:08.444Z,13.77
2018-10-09T15:14:37.416Z,12.07
2018-10-09T15:17:06.453Z,21.30
2018-10-09T15:19:35.186Z,11.37
2018-10-09T15:22:04.522Z,13.03
2018-10-09T15:24:33.432Z,11.43
2018-10-09T15:27:02.906Z,12.93
2018-10-09T15:29:31.747Z,11.20
2018-10-09T15:32:00.587Z,14.33
2018-10-09T15:34:29.461Z,10.83
2018-10-09T15:36:58.324Z,12.77
2018-10-09T15:39:27.172Z,14.10
2018-10-09T15:41:56.016Z,11.80
2018-10-09T15:44:24.936Z,12.93
2018-10-09T15:46:53.797Z,18.83
2018-10-09T15:49:22.687Z,15.37
2018-10-09T15:51:51.582Z,15.30
2018-10-09T15:54:20.480Z,15.87
2018-10-09T15:56:49.389Z,16.73
2018-10-09T15:59:18.300Z,15.33
2018-10-09T16:01:47.201Z,15.20
2018-10-09T16:04:16.275Z,14.53
2018-10-09T16:06:45.124Z,16.70
2018-10-09T16:09:14.097Z,14.20
2018-10-09T16:11:42.996Z,20.33
2018-10-09T16:14:11.899Z,14.50
2018-10-09T16:16:40.748Z,17.90
2018-10-09T16:19:10.090Z,14.93
2018-10-09T16:21:39.563Z,14.60
2018-10-09T16:24:09.803Z,12.90
2018-10-09T16:26:38.675Z,13.63
2018-10-09T16:29:07.543Z,13.73
2018-10-09T16:31:36.357Z,11.87
2018-10-09T16:34:05.272Z,14.00
2018-10-09T16:36:34.106Z,14.13
2018-10-09T16:39:03.368Z,16.77
2018-10-09T16:41:33.096Z,14.90
2018-10-09T16:44:02.013Z,13.90
2018-10-09T16:46:30.905Z,13.00
2018-10-09T16:48:59.946Z,15.03
2018-10-09T16:51:28.971Z,17.80
2018-10-09T16:54:01.893Z,18.53
2018-10-09T16:56:34.900Z,18.13
2018-10-09T16:59:04.283Z,19.60
2018-10-09T17:01:33.357Z,20.63
2018-10-09T17:04:04.191Z,19.63
2018-10-09T17:06:33.218Z,20.13
2018-10-09T17:09:02.149Z,27.50
2018-10-09T17:11:31.561Z,22.30
2018-10-09T17:14:00.443Z,18.00
2018-10-09T17:16:29.387Z,19.17
2018-10-09T17:18:58.326Z,17.63
2018-10-09T17:21:27.225Z,19.10
2018-10-09T17:23:56.136Z,20.77
2018-10-09T17:26:26.155Z,20.77
2018-10-09T17:28:55.176Z,18.40
2018-10-09T17:31:24.215Z,21.97
2018-10-09T17:33:53.368Z,26.83
2018-10-09T17:36:22.390Z,45.33
2018-10-09T17:38:51.508Z,30.77
2018-10-09T17:41:20.579Z,35.83
2018-10-09T17:43:49.694Z,44.27
2018-10-09T17:46:18.668Z,33.03
2018-10-09T17:48:47.684Z,39.30
2018-10-09T17:51:16.497Z,40.50
2018-10-09T17:53:45.516Z,49.73
2018-10-09T17:56:14.395Z,47.97
2018-10-09T17:58:43.570Z,52.60
2018-10-09T18:01:12.516Z,50.43
2018-10-09T18:03:41.636Z,43.77
2018-10-09T18:06:10.561Z,43.67
2018-10-09T18:08:39.508Z,43.47
2018-10-09T18:11:09.071Z,44.63
2018-10-09T18:13:38.071Z,41.53
2018-10-09T18:16:07.238Z,46.60
2018-10-09T18:18:36.661Z,45.87
2018-10-09T18:21:05.534Z,43.43
2018-10-09T18:23:34.526Z,34.83
2018-10-09T18:26:03.681Z,40.03
2018-10-09T18:28:32.945Z,39.07
2018-10-09T18:31:02.243Z,31.33
2018-10-09T18:33:31.255Z,33.57
2018-10-09T18:36:01.096Z,33.20
2018-10-09T18:38:30.801Z,35.03
2018-10-09T18:40:59.777Z,28.70
2018-10-09T18:43:28.617Z,32.90
2018-10-09T18:45:57.632Z,32.43
2018-10-09T18:48:26.553Z,27.97
2018-10-09T18:50:55.418Z,36.27
2018-10-09T18:53:24.381Z,30.87
2018-10-09T18:55:53.277Z,30.47
2018-10-09T18:58:22.238Z,33.37
2018-10-09T19:00:51.540Z,32.13
2018-10-09T19:03:20.463Z,34.07
2018-10-09T19:05:49.380Z,29.30
2018-10-09T19:08:18.287Z,31.93
2018-10-09T19:10:47.181Z,33.27
2018-10-09T19:13:16.185Z,39.60
2018-10-09T19:15:45.069Z,36.30
2018-10-09T19:18:14.026Z,40.50
2018-10-09T19:20:42.922Z,34.33
2018-10-09T19:23:11.798Z,41.57
2018-10-09T19:25:40.717Z,44.07
2018-10-09T19:28:09.819Z,47.90
2018-10-09T19:30:38.760Z,50.93
2018-10-09T19:33:07.629Z,44.67
2018-10-09T19:35:36.598Z,41.33
2018-10-09T19:38:05.866Z,39.97
2018-10-09T19:40:34.867Z,47.07
2018-10-09T19:43:03.724Z,51.13
2018-10-09T19:45:33.741Z,46.83
2018-10-09T19:48:02.788Z,46.87
2018-10-09T19:50:31.787Z,40.83
2018-10-09T19:53:00.703Z,42.60
2018-10-09T19:55:29.560Z,46.37
2018-10-09T19:57:58.558Z,47.57
2018-10-09T20:00:27.509Z,48.03
2018-10-09T20:02:56.608Z,48.03
2018-10-09T20:05:25.594Z,46.70
2018-10-09T20:07:54.665Z,44.43
2018-10-09T20:10:23.565Z,45.13
2018-10-09T20:12:52.590Z,42.20
2018-10-09T20:15:21.494Z,42.90
2018-10-09T20:17:50.360Z,49.23
2018-10-09T20:20:19.219Z,47.97
2018-10-09T20:22:48.189Z,41.53
2018-10-09T20:25:17.318Z,49.07
2018-10-09T20:27:46.228Z,44.13
2018-10-09T20:30:15.091Z,41.67
2018-10-09T20:32:45.166Z,47.37
2018-10-09T20:35:14.014Z,44.73
2018-10-09T20:37:42.896Z,47.67
2018-10-09T20:40:11.839Z,39.33
2018-10-09T20:42:40.722Z,39.97
2018-10-09T20:45:09.672Z,38.53
2018-10-09T20:47:44.098Z,39.50
2018-10-09T20:50:13.974Z,43.27
2018-10-09T20:52:42.944Z,44.37
2018-10-09T20:55:11.837Z,39.53
2018-10-09T20:57:48.151Z,36.60
2018-10-09T21:00:17.320Z,46.87
2018-10-09T21:02:46.190Z,40.63
2018-10-09T21:05:15.120Z,39.87
2018-10-09T21:07:44.100Z,41.43
2018-10-09T21:10:13.014Z,46.40
2018-10-09T21:12:42.056Z,53.37
2018-10-09T21:15:11.010Z,46.07
2018-10-09T21:17:39.984Z,47.97
2018-10-09T21:20:08.903Z,48.37
2018-10-09T21:22:37.877Z,46.70
2018-10-09T21:25:06.871Z,48.97
2018-10-09T21:27:35.776Z,47.00
2018-10-09T21:30:04.754Z,45.23
2018-10-09T21:32:33.616Z,42.63
2018-10-09T21:35:02.461Z,55.33
2018-10-09T21:37:31.328Z,49.23
2018-10-09T21:40:00.142Z,52.33
2018-10-09T21:42:29.051Z,53.07
2018-10-09T21:44:57.875Z,46.57
2018-10-09T21:47:26.740Z,41.23
2018-10-09T21:49:55.619Z,50.53
2018-10-09T21:52:24.472Z,44.97
2018-10-09T21:54:53.298Z,46.80
2018-10-09T21:57:22.202Z,43.70
2018-10-09T21:59:51.085Z,48.93
2018-10-09T22:02:19.931Z,43.70
2018-10-09T22:04:48.837Z,45.40
2018-10-09T22:07:18.542Z,43.17
2018-10-09T22:09:47.593Z,46.53
2018-10-09T22:12:16.474Z,40.23
2018-10-09T22:14:45.310Z,38.77
2018-10-09T22:17:14.176Z,43.80
2018-10-09T22:19:43.088Z,45.90
2018-10-09T22:22:11.982Z,48.00
2018-10-09T22:24:40.819Z,42.47
2018-10-09T22:27:09.685Z,49.77
2018-10-09T22:29:38.576Z,41.00
2018-10-09T22:32:07.436Z,41.67
2018-10-09T22:34:36.273Z,45.83
2018-10-09T22:37:05.278Z,40.23
2018-10-09T22:39:34.144Z,45.63
2018-10-09T22:42:03.036Z,41.40
2018-10-09T22:44:31.900Z,44.43
2018-10-09T22:47:00.763Z,42.57
2018-10-09T22:49:29.740Z,44.77
2018-10-09T22:51:58.598Z,38.93
2018-10-09T22:54:27.453Z,42.60
2018-10-09T22:56:56.671Z,43.27
2018-10-09T22:59:26.566Z,38.67
2018-10-09T23:01:55.446Z,37.90
2018-10-09T23:04:24.399Z,34.97
2018-10-09T23:06:53.289Z,38.30
2018-10-09T23:09:22.165Z,36.90
2018-10-09T23:11:51.099Z,37.50
2018-10-09T23:14:19.984Z,37.87
2018-10-09T23:16:48.858Z,43.97
2018-10-09T23:19:17.674Z,36.27
2018-10-09T23:21:46.583Z,35.30
2018-10-09T23:24:15.484Z,40.63
2018-10-09T23:26:44.386Z,39.97
2018-10-09T23:29:13.283Z,36.10
2018-10-09T23:31:42.141Z,35.03
2018-10-09T23:34:10.960Z,38.57
2018-10-09T23:36:39.920Z,42.03
2018-10-09T23:39:09.492Z,41.03
2018-10-09T23:41:38.392Z,40.27
2018-10-09T23:44:07.277Z,38.93
2018-10-09T23:46:36.179Z,44.00
2018-10-09T23:49:05.046Z,38.40
2018-10-09T23:51:33.930Z,38.70
2018-10-09T23:54:02.838Z,40.23
2018-10-09T23:56:31.723Z,40.07
2018-10-09T23:59:00.557Z,43.47
